Time;durP1;ratioP1;P1;durP2;ratioP2;P2;SDS_P1;SDS_P2;PMS_P1;PMS_P2;Temp;Humidity;BMP_temperature;BMP_pressure;BME280_temperature;BME280_humidity;BME280_pressure;Samples;Min_cycle;Max_cycle;Signal;HPM_P1;HPM_P2
2023/02/11 00:01:47;;;;;;;;;;;;;;;20.17;18.23;99773.63;5106294;28;20379;-81
2023/02/11 00:04:13;;;;;;;;;;;;;;;19.90;18.49;99764.31;5114359;28;19922;-81
2023/02/11 00:06:39;;;;;;;;;;;;;;;19.88;18.67;99770.25;5114406;28;19928;-81
2023/02/11 00:09:05;;;;;;;;;;;;;;;20.06;18.39;99772.59;5114671;28;19926;-81
2023/02/11 00:11:32;;;;;;;;;;;;;;;20.41;18.55;99762.22;5114066;28;19920;-81
2023/02/11 00:13:59;;;;;;;;;;;;;;;20.79;17.83;99761.34;5114452;28;19927;-81
2023/02/11 00:16:25;;;;;;;;;;;;;;;20.93;17.89;99761.59;5113487;28;19973;-81
2023/02/11 00:18:52;;;;;;;;;;;;;;;20.93;17.54;99765.19;5109205;28;19965;-81
2023/02/11 00:21:20;;;;;;;;;;;;;;;21.06;17.65;99771.41;5104465;28;20039;-81
2023/02/11 00:23:46;;;;;;;;;;;;;;;21.21;17.34;99764.91;5114314;28;19959;-82
2023/02/11 00:26:16;;;;;;;;;;;;;;;21.35;17.34;99765.91;5126031;27;20026;-81
2023/02/11 00:28:42;;;;;;;;;;;;;;;21.33;17.41;99759.91;5118118;27;19978;-82
2023/02/11 00:31:08;;;;;;;;;;;;;;;21.50;17.18;99752.97;5113844;28;20343;-81
2023/02/11 00:33:34;;;;;;;;;;;;;;;21.52;17.25;99753.41;5114060;28;20306;-81
2023/02/11 00:36:04;;;;;;;;;;;;;;;21.49;16.94;99745.78;5111196;28;19928;-82
2023/02/11 00:38:30;;;;;;;;;;;;;;;21.49;17.22;99743.00;5092847;28;19920;-82
2023/02/11 00:40:56;;;;;;;;;;;;;;;21.39;17.12;99740.03;5094448;28;19917;-82
2023/02/11 00:43:22;;;;;;;;;;;;;;;20.98;17.05;99736.94;5109904;28;19920;-82
2023/02/11 00:45:48;;;;;;;;;;;;;;;20.48;17.53;99726.06;5113148;28;19927;-82
2023/02/11 00:48:14;;;;;;;;;;;;;;;20.27;17.89;99728.47;5113966;28;19916;-82
2023/02/11 00:50:40;;;;;;;;;;;;;;;20.47;17.45;99722.47;5114075;28;20295;-82
2023/02/11 00:53:06;;;;;;;;;;;;;;;20.29;17.82;99728.91;5106306;28;20387;-82
2023/02/11 00:55:32;;;;;;;;;;;;;;;20.33;17.62;99729.75;5093857;28;19924;-82
2023/02/11 00:57:58;;;;;;;;;;;;;;;20.44;17.50;99719.63;5111440;28;20012;-82
2023/02/11 01:00:25;;;;;;;;;;;;;;;20.35;18.23;99710.69;5126410;27;20406;-82
2023/02/11 01:02:51;;;;;;;;;;;;;;;20.48;17.81;99703.75;5114629;28;19920;-82
2023/02/11 01:05:18;;;;;;;;;;;;;;;20.76;17.59;99704.28;5109409;28;19932;-82
2023/02/11 01:07:44;;;;;;;;;;;;;;;20.86;17.56;99697.25;5108464;28;19927;-82
2023/02/11 01:10:10;;;;;;;;;;;;;;;20.89;17.50;99688.94;5091357;28;19920;-82
2023/02/11 01:12:36;;;;;;;;;;;;;;;20.85;17.00;99687.25;5092231;28;20275;-82
2023/02/11 01:15:03;;;;;;;;;;;;;;;20.42;17.43;99682.94;5114119;28;20011;-82
2023/02/11 01:17:29;;;;;;;;;;;;;;;20.43;17.62;99676.16;5109172;28;20442;-82
2023/02/11 01:19:55;;;;;;;;;;;;;;;20.57;17.66;99668.03;5113683;28;19916;-82
2023/02/11 01:22:21;;;;;;;;;;;;;;;20.38;17.46;99659.72;5112526;28;19919;-82
2023/02/11 01:24:47;;;;;;;;;;;;;;;20.31;18.09;99643.66;5113556;28;19973;-81
2023/02/11 01:27:13;;;;;;;;;;;;;;;20.04;18.12;99635.56;5108897;28;19916;-81
2023/02/11 01:29:39;;;;;;;;;;;;;;;20.08;17.95;99628.06;5106130;28;20337;-82
2023/02/11 01:32:05;;;;;;;;;;;;;;;20.26;17.81;99632.81;5113550;28;20379;-81
2023/02/11 01:34:31;;;;;;;;;;;;;;;20.36;17.30;99629.41;5127952;28;19922;-82
2023/02/11 01:36:58;;;;;;;;;;;;;;;20.14;17.52;99632.94;5115625;28;19916;-81
2023/02/11 01:39:24;;;;;;;;;;;;;;;19.60;17.84;99633.09;5111936;28;19920;-81
2023/02/11 01:41:51;;;;;;;;;;;;;;;19.43;18.73;99639.09;5113834;28;20387;-81
2023/02/11 01:44:21;;;;;;;;;;;;;;;19.47;18.40;99636.38;5101972;28;20410;-81
2023/02/11 01:46:47;;;;;;;;;;;;;;;19.81;18.01;99630.72;5112926;28;19951;-81
2023/02/11 01:49:16;;;;;;;;;;;;;;;20.13;17.96;99628.56;5115771;28;19920;-81
2023/02/11 01:51:44;;;;;;;;;;;;;;;20.48;18.03;99622.84;5109963;28;19920;-81
2023/02/11 01:59:49;;;;;;;;;;;;;;;20.46;17.37;99622.41;5112287;28;19965;-82
2023/02/11 02:02:19;;;;;;;;;;;;;;;20.58;17.68;99616.66;5101708;28;19924;-81
2023/02/11 02:04:59;;;;;;;;;;;;;;;20.18;17.68;99603.16;5102068;28;19983;-82
2023/02/11 02:07:32;;;;;;;;;;;;;;;20.37;17.85;99603.16;5107342;28;19919;-82
2023/02/11 02:10:01;;;;;;;;;;;;;;;20.36;17.71;99579.22;5114747;28;19920;-82
2023/02/11 02:12:27;;;;;;;;;;;;;;;19.78;18.26;99589.69;5114063;28;19927;-82
2023/02/11 02:15:10;;;;;;;;;;;;;;;19.58;18.50;99581.72;5107904;28;19919;-82
2023/02/11 02:17:44;;;;;;;;;;;;;;;18.97;18.99;99587.13;5115861;28;19919;-82
2023/02/11 02:20:40;;;;;;;;;;;;;;;19.62;18.60;99583.41;5099310;28;19943;-81
2023/02/11 02:23:23;;;;;;;;;;;;;;;18.90;19.31;99584.19;5026092;28;19921;-81
2023/02/11 02:25:55;;;;;;;;;;;;;;;19.37;18.91;99581.28;5110583;28;20373;-81
2023/02/11 02:28:24;;;;;;;;;;;;;;;19.60;18.56;99582.16;5108082;28;19920;-81
2023/02/11 02:30:56;;;;;;;;;;;;;;;19.81;18.68;99582.56;5107935;28;19916;-81
2023/02/11 02:33:37;;;;;;;;;;;;;;;20.25;17.88;99588.56;5109926;28;19919;-81
2023/02/11 02:36:26;;;;;;;;;;;;;;;20.14;18.02;99593.91;5114099;28;19924;-81
2023/02/11 02:38:59;;;;;;;;;;;;;;;20.05;18.27;99589.78;5110322;28;19920;-81
2023/02/11 02:41:31;;;;;;;;;;;;;;;19.92;18.41;99597.50;5100794;28;19923;-82
2023/02/11 02:43:57;;;;;;;;;;;;;;;19.98;18.15;99587.66;5113911;28;19920;-81
2023/02/11 02:46:25;;;;;;;;;;;;;;;20.40;18.31;99585.66;5114524;28;20018;-81
2023/02/11 02:48:52;;;;;;;;;;;;;;;19.84;18.78;99587.38;5107173;28;19920;-81
2023/02/11 02:51:26;;;;;;;;;;;;;;;19.83;18.69;99586.59;5101435;28;19920;-81
2023/02/11 02:54:10;;;;;;;;;;;;;;;19.42;19.34;99578.97;5098330;28;19920;-81
2023/02/11 02:56:43;;;;;;;;;;;;;;;19.90;19.18;99563.63;5096160;28;19926;-81
2023/02/11 02:59:09;;;;;;;;;;;;;;;19.80;19.15;99565.03;5106222;28;20433;-81
2023/02/11 03:01:47;;;;;;;;;;;;;;;20.32;18.47;99561.63;5112569;28;19926;-81
2023/02/11 03:04:19;;;;;;;;;;;;;;;20.62;18.62;99547.75;5112052;28;19927;-81
2023/02/11 03:06:56;;;;;;;;;;;;;;;20.89;18.00;99546.53;5116122;28;20026;-81
2023/02/11 03:09:26;;;;;;;;;;;;;;;21.17;18.34;99554.53;5107149;27;20032;-81
2023/02/11 03:11:52;;;;;;;;;;;;;;;21.07;18.07;99549.63;5103389;28;20006;-81
2023/02/11 03:14:20;;;;;;;;;;;;;;;21.29;17.85;99546.72;5114981;28;19942;-81
2023/02/11 03:16:48;;;;;;;;;;;;;;;21.15;17.90;99540.16;5113392;28;19920;-81
2023/02/11 03:19:14;;;;;;;;;;;;;;;21.47;17.90;99530.16;5111586;27;19966;-81
2023/02/11 03:21:41;;;;;;;;;;;;;;;21.47;17.77;99521.78;5101053;28;20339;-81
2023/02/11 03:24:11;;;;;;;;;;;;;;;21.65;17.97;99506.03;5112648;28;20028;-81
2023/02/11 03:26:39;;;;;;;;;;;;;;;20.30;18.24;99490.66;5103794;28;19920;-79
2023/02/11 03:29:05;;;;;;;;;;;;;;;20.51;18.41;99480.59;5096067;28;19961;-80
2023/02/11 03:31:49;;;;;;;;;;;;;;;20.76;18.51;99469.81;5114431;28;19931;-80
2023/02/11 03:34:34;;;;;;;;;;;;;;;20.51;19.33;99463.06;5106271;27;20503;-79
2023/02/11 03:37:04;;;;;;;;;;;;;;;20.18;19.22;99451.78;5114613;28;19980;-79
2023/02/11 03:39:35;;;;;;;;;;;;;;;20.21;19.15;99434.31;5112996;28;19920;-79
2023/02/11 03:42:02;;;;;;;;;;;;;;;20.18;19.33;99449.00;5114190;28;19926;-79
2023/02/11 03:44:33;;;;;;;;;;;;;;;20.24;19.24;99447.50;5111114;28;19926;-79
2023/02/11 03:47:01;;;;;;;;;;;;;;;20.78;19.13;99441.50;5112618;28;19927;-79
2023/02/11 03:49:27;;;;;;;;;;;;;;;20.55;19.15;99430.44;5106637;27;19919;-79
2023/02/11 03:51:55;;;;;;;;;;;;;;;20.98;18.78;99413.03;5121166;27;19965;-79
2023/02/11 03:54:27;;;;;;;;;;;;;;;21.31;18.52;99420.63;5107971;28;19963;-79
2023/02/11 03:56:55;;;;;;;;;;;;;;;20.28;19.13;99412.91;5114033;28;19922;-79
2023/02/11 03:59:21;;;;;;;;;;;;;;;20.27;19.48;99416.09;5109367;28;19965;-79
2023/02/11 04:01:47;;;;;;;;;;;;;;;20.70;19.32;99412.69;5108482;28;19920;-79
2023/02/11 04:04:14;;;;;;;;;;;;;;;20.02;19.56;99424.06;5109432;28;19916;-79
2023/02/11 04:06:40;;;;;;;;;;;;;;;19.83;20.04;99419.38;5111295;27;19923;-79
2023/02/11 04:09:06;;;;;;;;;;;;;;;19.93;20.00;99426.28;5107011;28;20023;-79
2023/02/11 04:11:32;;;;;;;;;;;;;;;19.12;20.21;99419.22;5097308;28;20383;-79
2023/02/11 04:13:58;;;;;;;;;;;;;;;19.86;19.92;99396.31;5102658;28;19974;-79
2023/02/11 04:16:24;;;;;;;;;;;;;;;19.90;20.29;99390.81;5108506;28;20010;-79
2023/02/11 04:18:50;;;;;;;;;;;;;;;20.70;19.41;99387.56;5105211;28;20375;-79
2023/02/11 04:21:16;;;;;;;;;;;;;;;20.86;19.25;99384.59;5098484;28;19919;-79
2023/02/11 04:23:42;;;;;;;;;;;;;;;20.97;19.23;99379.94;5112719;28;19919;-79
2023/02/11 04:26:08;;;;;;;;;;;;;;;20.98;18.84;99373.16;5107539;28;19926;-79
2023/02/11 04:28:35;;;;;;;;;;;;;;;20.38;19.37;99376.00;5109199;28;19920;-79
2023/02/11 04:31:01;;;;;;;;;;;;;;;20.56;19.77;99367.88;5112366;28;20023;-79
2023/02/11 04:33:27;;;;;;;;;;;;;;;20.86;19.42;99360.28;5096429;28;20014;-79
2023/02/11 04:35:53;;;;;;;;;;;;;;;21.00;18.85;99349.28;5096379;28;19993;-79
2023/02/11 04:38:22;;;;;;;;;;;;;;;20.84;19.04;99345.88;5109404;28;19923;-80
2023/02/11 04:40:49;;;;;;;;;;;;;;;20.49;19.52;99346.25;5107434;28;20010;-79
2023/02/11 04:43:15;;;;;;;;;;;;;;;21.38;19.07;99339.66;5114180;28;19920;-79
2023/02/11 04:45:41;;;;;;;;;;;;;;;21.53;18.65;99347.00;5110267;28;20391;-79
2023/02/11 04:48:07;;;;;;;;;;;;;;;21.77;18.63;99340.00;5112211;28;19919;-79
2023/02/11 04:50:33;;;;;;;;;;;;;;;21.79;18.23;99337.63;5095873;28;19925;-79
2023/02/11 04:52:59;;;;;;;;;;;;;;;21.66;18.36;99345.50;5098448;28;19924;-79
2023/02/11 04:55:25;;;;;;;;;;;;;;;21.43;18.72;99341.31;5105367;28;19964;-79
2023/02/11 04:57:51;;;;;;;;;;;;;;;21.08;19.19;99342.59;5099929;28;19920;-79
2023/02/11 05:00:17;;;;;;;;;;;;;;;20.78;18.86;99347.41;5094892;28;20128;-79
2023/02/11 05:02:43;;;;;;;;;;;;;;;21.28;18.60;99343.19;5104272;28;19973;-79
2023/02/11 05:05:09;;;;;;;;;;;;;;;21.15;18.86;99342.66;5110576;28;19928;-79
2023/02/11 05:07:35;;;;;;;;;;;;;;;20.92;18.77;99343.97;5113849;28;20371;-79
2023/02/11 05:10:01;;;;;;;;;;;;;;;20.93;19.03;99351.97;5094046;28;19916;-79
2023/02/11 05:12:27;;;;;;;;;;;;;;;20.66;19.14;99358.81;5093862;28;19916;-79
2023/02/11 05:14:53;;;;;;;;;;;;;;;20.38;19.35;99358.47;5100804;28;19969;-79
2023/02/11 05:17:19;;;;;;;;;;;;;;;20.55;19.67;99375.44;5113803;28;20429;-79
2023/02/11 05:19:45;;;;;;;;;;;;;;;20.92;19.25;99367.13;5110184;28;19928;-79
2023/02/11 05:22:11;;;;;;;;;;;;;;;21.20;18.83;99361.06;5111046;28;19927;-79
2023/02/11 05:24:37;;;;;;;;;;;;;;;21.72;18.62;99354.34;5088733;28;19915;-79
2023/02/11 05:27:03;;;;;;;;;;;;;;;22.27;18.30;99350.34;5101232;28;19927;-79
2023/02/11 05:29:29;;;;;;;;;;;;;;;22.55;17.43;99346.88;5099330;28;19924;-79
2023/02/11 05:31:57;;;;;;;;;;;;;;;22.45;18.36;99347.66;5106129;28;20295;-79
2023/02/11 05:34:23;;;;;;;;;;;;;;;22.81;17.99;99332.63;5108275;28;19920;-79
2023/02/11 05:36:49;;;;;;;;;;;;;;;23.11;17.87;99335.09;5106508;28;19924;-79
2023/02/11 05:39:15;;;;;;;;;;;;;;;23.15;18.13;99342.28;5115851;28;20014;-79
2023/02/11 05:41:41;;;;;;;;;;;;;;;23.29;17.61;99330.34;5117524;28;19930;-79
2023/02/11 05:44:07;;;;;;;;;;;;;;;23.09;17.94;99331.88;5113066;28;19923;-79
2023/02/11 05:46:33;;;;;;;;;;;;;;;23.13;17.54;99335.50;5112725;28;19919;-80
2023/02/11 05:48:59;;;;;;;;;;;;;;;22.53;17.64;99338.88;5112107;28;20295;-80
2023/02/11 05:51:25;;;;;;;;;;;;;;;22.31;17.92;99339.19;5102747;28;19931;-80
2023/02/11 05:53:51;;;;;;;;;;;;;;;22.44;17.89;99332.03;5111840;28;19926;-81
2023/02/11 05:56:17;;;;;;;;;;;;;;;22.33;18.17;99332.00;5108266;28;19926;-81
2023/02/11 05:58:43;;;;;;;;;;;;;;;22.36;17.97;99336.00;5112069;28;20422;-81
2023/02/11 06:01:09;;;;;;;;;;;;;;;22.36;18.55;99331.19;5109967;28;19924;-80
2023/02/11 06:03:35;;;;;;;;;;;;;;;22.73;18.20;99330.19;5105964;28;19981;-81
2023/02/11 06:06:01;;;;;;;;;;;;;;;22.75;17.66;99333.41;5114770;28;20424;-81
2023/02/11 06:08:27;;;;;;;;;;;;;;;22.58;17.80;99341.31;5108726;28;19924;-80
2023/02/11 06:10:53;;;;;;;;;;;;;;;22.45;18.84;99340.03;5105866;28;19920;-80
2023/02/11 06:13:19;;;;;;;;;;;;;;;22.59;18.47;99347.72;5115161;27;19923;-82
2023/02/11 06:15:54;;;;;;;;;;;;;;;22.44;18.14;99349.66;5107335;28;19920;-81
2023/02/11 06:18:20;;;;;;;;;;;;;;;22.01;18.89;99353.38;5111097;28;19977;-81
2023/02/11 06:20:46;;;;;;;;;;;;;;;22.25;18.22;99351.94;5110241;28;19920;-81
2023/02/11 06:23:12;;;;;;;;;;;;;;;22.76;17.91;99340.59;5114034;28;19916;-82
2023/02/11 06:25:38;;;;;;;;;;;;;;;23.04;18.30;99330.28;5108889;28;20026;-82
2023/02/11 06:28:04;;;;;;;;;;;;;;;23.34;18.01;99316.75;5108666;28;20292;-82
2023/02/11 06:30:30;;;;;;;;;;;;;;;23.56;17.39;99299.94;5087695;28;19924;-82
2023/02/11 06:32:56;;;;;;;;;;;;;;;23.59;17.57;99291.53;5096912;28;19936;-82
2023/02/11 06:35:22;;;;;;;;;;;;;;;23.49;17.00;99278.31;5113741;28;19954;-83
2023/02/11 06:37:48;;;;;;;;;;;;;;;23.60;17.92;99267.88;5111969;28;20352;-82
2023/02/11 06:40:14;;;;;;;;;;;;;;;23.54;17.45;99258.28;5114621;28;19927;-83
2023/02/11 06:42:40;;;;;;;;;;;;;;;22.75;17.92;99243.81;5108918;28;19949;-83
2023/02/11 06:45:08;;;;;;;;;;;;;;;22.06;18.16;99249.53;5089187;28;20276;-82
2023/02/11 06:47:34;;;;;;;;;;;;;;;21.60;18.86;99257.63;5097629;28;19926;-83
2023/02/11 06:50:00;;;;;;;;;;;;;;;22.00;18.66;99254.72;5111242;28;19931;-83
2023/02/11 06:52:26;;;;;;;;;;;;;;;21.46;18.87;99271.50;5110702;28;19919;-83
2023/02/11 06:54:52;;;;;;;;;;;;;;;21.38;19.27;99266.25;5109980;28;19967;-83
2023/02/11 06:57:18;;;;;;;;;;;;;;;22.05;19.11;99261.94;5112422;28;20291;-83
2023/02/11 06:59:44;;;;;;;;;;;;;;;21.82;18.85;99269.75;5104317;28;20268;-83
2023/02/11 07:02:10;;;;;;;;;;;;;;;22.39;18.94;99268.88;5110003;28;19950;-83
2023/02/11 07:04:36;;;;;;;;;;;;;;;22.19;18.74;99256.41;5112342;28;19921;-83
2023/02/11 07:07:03;;;;;;;;;;;;;;;22.30;18.69;99257.25;5108276;28;19982;-83
2023/02/11 07:09:29;;;;;;;;;;;;;;;22.62;18.29;99255.38;5110738;28;19920;-83
2023/02/11 07:11:55;;;;;;;;;;;;;;;22.28;18.79;99253.22;5108132;28;20445;-83
2023/02/11 07:14:21;;;;;;;;;;;;;;;22.65;18.42;99260.19;5111133;27;19919;-83
2023/02/11 07:16:47;;;;;;;;;;;;;;;22.02;18.65;99257.91;5106418;28;19942;-83
2023/02/11 07:19:13;;;;;;;;;;;;;;;22.13;18.39;99262.75;5112065;28;19997;-83
2023/02/11 07:21:39;;;;;;;;;;;;;;;22.05;18.80;99273.13;5113087;27;20414;-83
2023/02/11 07:24:06;;;;;;;;;;;;;;;21.68;18.89;99272.47;5109591;28;20007;-82
2023/02/11 07:26:33;;;;;;;;;;;;;;;21.76;18.51;99288.88;5111216;28;20608;-82
2023/02/11 07:28:59;;;;;;;;;;;;;;;22.70;19.11;99281.41;5104543;28;19974;-82
2023/02/11 07:31:26;;;;;;;;;;;;;;;22.25;18.46;99270.78;5108078;27;19916;-82
2023/02/11 07:33:53;;;;;;;;;;;;;;;22.91;18.50;99269.44;5109757;28;19920;-82
2023/02/11 07:36:19;;;;;;;;;;;;;;;23.38;17.82;99273.91;5107093;28;19988;-82
2023/02/11 07:38:46;;;;;;;;;;;;;;;23.74;17.93;99281.06;5108134;27;19924;-82
2023/02/11 07:41:13;;;;;;;;;;;;;;;23.96;17.36;99271.44;5102132;28;19924;-82
2023/02/11 07:43:39;;;;;;;;;;;;;;;24.19;18.00;99268.97;5098650;28;20517;-82
2023/02/11 07:46:17;;;;;;;;;;;;;;;24.31;18.01;99257.31;5107213;28;20441;-81
2023/02/11 07:48:43;;;;;;;;;;;;;;;24.55;17.70;99258.41;5109629;28;20306;-82
2023/02/11 07:51:11;;;;;;;;;;;;;;;24.65;17.27;99249.09;5108689;28;20003;-81
2023/02/11 07:53:37;;;;;;;;;;;;;;;24.45;16.45;99240.41;5107646;28;20003;-80
2023/02/11 07:56:04;;;;;;;;;;;;;;;24.21;17.00;99246.13;5099255;28;19916;-81
2023/02/11 07:58:30;;;;;;;;;;;;;;;24.30;17.10;99249.28;5104643;28;19930;-82
2023/02/11 08:01:00;;;;;;;;;;;;;;;24.11;17.74;99246.97;5107104;28;19973;-82
2023/02/11 08:03:26;;;;;;;;;;;;;;;24.12;16.82;99254.16;5102255;28;20377;-82
2023/02/11 08:05:52;;;;;;;;;;;;;;;24.22;17.31;99253.34;5107607;27;20425;-82
2023/02/11 08:08:18;;;;;;;;;;;;;;;24.07;16.95;99251.78;5103941;28;19924;-80
2023/02/11 08:10:44;;;;;;;;;;;;;;;24.08;17.43;99259.81;5109287;28;19927;-81
2023/02/11 08:13:10;;;;;;;;;;;;;;;24.33;17.72;99240.84;5111127;28;19927;-82
2023/02/11 08:15:36;;;;;;;;;;;;;;;24.36;16.59;99242.84;5102310;28;19923;-83
2023/02/11 08:18:02;;;;;;;;;;;;;;;24.44;17.04;99235.19;5101195;27;19931;-82
2023/02/11 08:20:29;;;;;;;;;;;;;;;23.41;17.90;99239.47;5112501;28;19919;-82
2023/02/11 08:22:55;;;;;;;;;;;;;;;22.97;17.75;99242.63;5111948;28;19938;-83
2023/02/11 08:25:21;;;;;;;;;;;;;;;22.15;19.27;99233.19;5094527;28;20447;-82
2023/02/11 08:27:47;;;;;;;;;;;;;;;22.17;19.24;99224.41;5101556;28;20425;-83
2023/02/11 08:30:13;;;;;;;;;;;;;;;21.68;18.94;99222.16;5112775;28;19916;-83
2023/02/11 08:32:39;;;;;;;;;;;;;;;21.67;19.42;99229.72;5108486;28;20405;-82
2023/02/11 08:35:06;;;;;;;;;;;;;;;19.40;21.51;99238.78;5107714;28;19924;-82
2023/02/11 08:37:33;;;;;;;;;;;;;;;19.60;21.73;99231.94;5093424;28;19923;-81
2023/02/11 08:39:59;;;;;;;;;;;;;;;18.78;21.84;99231.75;5110233;28;20024;-81
2023/02/11 08:42:25;;;;;;;;;;;;;;;20.31;21.01;99222.50;5104321;28;19920;-82
2023/02/11 08:44:51;;;;;;;;;;;;;;;21.02;19.78;99229.63;5101364;28;20405;-82
2023/02/11 08:47:17;;;;;;;;;;;;;;;19.43;22.22;99240.81;5112350;28;19916;-82
2023/02/11 08:49:43;;;;;;;;;;;;;;;21.58;19.62;99232.06;5111440;28;19946;-82
2023/02/11 08:52:09;;;;;;;;;;;;;;;20.51;20.12;99234.31;5097847;28;20371;-82
2023/02/11 08:54:35;;;;;;;;;;;;;;;21.35;21.93;99237.88;5110361;28;19926;-82
2023/02/11 08:57:02;;;;;;;;;;;;;;;22.46;19.96;99240.09;5103712;27;20011;-82
2023/02/11 08:59:28;;;;;;;;;;;;;;;22.89;18.54;99244.63;5102234;28;19959;-82
2023/02/11 09:01:54;;;;;;;;;;;;;;;22.80;19.94;99226.63;5105476;28;19931;-83
2023/02/11 09:04:20;;;;;;;;;;;;;;;22.82;18.33;99233.44;5111613;28;20382;-82
2023/02/11 09:06:46;;;;;;;;;;;;;;;21.50;18.75;99221.22;5105732;28;19931;-80
2023/02/11 09:09:13;;;;;;;;;;;;;;;21.15;19.42;99225.38;5106951;28;19959;-82
2023/02/11 09:11:41;;;;;;;;;;;;;;;21.53;19.77;99234.41;5106440;28;20387;-83
2023/02/11 09:14:07;;;;;;;;;;;;;;;22.36;18.45;99224.88;5102207;28;19952;-82
2023/02/11 09:16:34;;;;;;;;;;;;;;;23.21;18.89;99222.22;5100829;28;19965;-82
2023/02/11 09:19:01;;;;;;;;;;;;;;;22.96;18.32;99221.44;5111228;28;19925;-82
2023/02/11 09:21:28;;;;;;;;;;;;;;;22.64;18.92;99221.38;5111585;28;19943;-82
2023/02/11 09:23:54;;;;;;;;;;;;;;;22.32;18.57;99226.06;5101231;28;19954;-82
2023/02/11 09:26:22;;;;;;;;;;;;;;;22.69;18.91;99234.97;5104725;28;20460;-82
2023/02/11 09:28:50;;;;;;;;;;;;;;;21.69;20.82;99238.53;5105054;28;19920;-82
2023/02/11 09:31:20;;;;;;;;;;;;;;;22.30;19.19;99234.84;5110663;28;19920;-82
2023/02/11 09:33:47;;;;;;;;;;;;;;;22.62;19.26;99226.56;5109148;28;19939;-81
2023/02/11 09:36:14;;;;;;;;;;;;;;;22.67;19.29;99217.78;5108934;28;19924;-82
2023/02/11 09:38:40;;;;;;;;;;;;;;;23.27;18.90;99206.59;5110752;28;19927;-82
2023/02/11 09:41:20;;;;;;;;;;;;;;;22.44;19.62;99220.09;5109866;28;19920;-82
2023/02/11 09:43:46;;;;;;;;;;;;;;;22.75;19.93;99224.22;5108130;28;19951;-82
2023/02/11 09:46:14;;;;;;;;;;;;;;;23.37;19.04;99233.88;5103331;28;19923;-82
2023/02/11 09:48:42;;;;;;;;;;;;;;;23.41;19.61;99222.66;5106271;28;19920;-82
2023/02/11 09:51:19;;;;;;;;;;;;;;;24.39;19.06;99229.97;5109013;28;19927;-82
2023/02/11 09:53:48;;;;;;;;;;;;;;;24.06;18.07;99231.34;5106545;28;19978;-82
2023/02/11 09:56:14;;;;;;;;;;;;;;;23.64;19.35;99234.25;5109482;28;19966;-82
2023/02/11 09:58:42;;;;;;;;;;;;;;;23.83;19.13;99237.38;5109766;28;19959;-82
2023/02/11 10:01:15;;;;;;;;;;;;;;;23.41;19.55;99233.88;5110946;28;20294;-82
2023/02/11 10:03:53;;;;;;;;;;;;;;;24.32;18.31;99230.03;5103981;28;20018;-82
2023/02/11 10:06:31;;;;;;;;;;;;;;;24.33;18.36;99226.81;5109384;28;19924;-82
2023/02/11 10:09:16;;;;;;;;;;;;;;;23.29;19.30;99229.44;5107041;28;19920;-82
2023/02/11 10:11:50;;;;;;;;;;;;;;;23.50;18.82;99228.66;5111186;28;19942;-82
2023/02/11 10:14:22;;;;;;;;;;;;;;;23.48;19.65;99226.25;5111931;28;19931;-82
2023/02/11 10:17:03;;;;;;;;;;;;;;;21.66;20.53;99224.50;5113654;28;19924;-82
2023/02/11 10:19:35;;;;;;;;;;;;;;;22.12;20.77;99217.22;5102605;28;19922;-82
2023/02/11 10:22:20;;;;;;;;;;;;;;;23.17;19.67;99213.84;5113038;28;19916;-82
2023/02/11 10:24:51;;;;;;;;;;;;;;;23.20;21.40;99210.22;5098926;28;20362;-82
2023/02/11 10:27:19;;;;;;;;;;;;;;;23.56;19.06;99194.19;5111315;28;20287;-82
2023/02/11 10:29:48;;;;;;;;;;;;;;;23.66;19.49;99182.16;5096175;27;19928;-82
2023/02/11 10:32:20;;;;;;;;;;;;;;;23.45;19.78;99182.22;5108685;27;19919;-83
2023/02/11 10:34:48;;;;;;;;;;;;;;;24.31;19.03;99177.91;5114245;28;21520;-82
2023/02/11 10:37:14;;;;;;;;;;;;;;;24.50;20.14;99160.56;5109689;27;19920;-84
2023/02/11 10:39:41;;;;;;;;;;;;;;;24.48;18.62;99160.19;5111368;27;19920;-82
2023/02/11 10:42:09;;;;;;;;;;;;;;;24.13;19.13;99151.97;5103760;28;19994;-83
2023/02/11 10:44:42;;;;;;;;;;;;;;;24.66;18.21;99146.81;5097611;28;20379;-83
2023/02/11 10:47:17;;;;;;;;;;;;;;;24.23;18.64;99148.28;5114836;28;19919;-83
2023/02/11 10:49:44;;;;;;;;;;;;;;;24.63;18.05;99142.00;5111730;28;20019;-83
2023/02/11 10:52:17;;;;;;;;;;;;;;;24.60;18.97;99137.19;5104904;28;20393;-84
2023/02/11 10:55:04;;;;;;;;;;;;;;;24.43;18.86;99132.53;5116050;28;19973;-83
2023/02/11 10:57:30;;;;;;;;;;;;;;;24.40;19.63;99133.34;5115536;28;19924;-83
2023/02/11 10:59:58;;;;;;;;;;;;;;;24.95;18.60;99120.09;5115862;28;19920;-82
2023/02/11 11:02:33;;;;;;;;;;;;;;;24.35;18.53;99119.75;5115321;27;19981;-83
2023/02/11 11:05:04;;;;;;;;;;;;;;;24.61;18.61;99105.91;5113488;28;19985;-83
2023/02/11 11:07:32;;;;;;;;;;;;;;;25.46;18.42;99096.75;5110777;28;20015;-82
2023/02/11 11:10:01;;;;;;;;;;;;;;;24.70;18.67;99086.59;5111483;27;20368;-82
2023/02/11 11:12:30;;;;;;;;;;;;;;;24.66;17.65;99074.59;5114629;28;19920;-82
2023/02/11 11:14:58;;;;;;;;;;;;;;;24.28;19.92;99069.25;5115185;28;19919;-82
2023/02/11 11:17:27;;;;;;;;;;;;;;;24.03;18.64;99067.41;5115246;28;19933;-83
2023/02/11 11:20:12;;;;;;;;;;;;;;;24.21;18.65;99064.50;5115067;28;19926;-82
2023/02/11 11:22:39;;;;;;;;;;;;;;;24.37;18.39;99061.16;5101725;28;19962;-83
2023/02/11 11:25:05;;;;;;;;;;;;;;;23.76;19.15;99043.09;5110140;28;19920;-82
2023/02/11 11:27:31;;;;;;;;;;;;;;;22.93;20.12;99037.38;5105908;28;19931;-83
2023/02/11 11:30:00;;;;;;;;;;;;;;;22.87;20.55;99039.78;5113333;28;20397;-83
2023/02/11 11:32:31;;;;;;;;;;;;;;;22.19;19.37;99037.41;5107313;28;20436;-83
2023/02/11 11:35:08;;;;;;;;;;;;;;;20.97;22.05;99045.72;5100037;27;19931;-84
2023/02/11 11:37:35;;;;;;;;;;;;;;;20.05;23.43;99046.16;5107705;28;19920;-83
2023/02/11 11:40:10;;;;;;;;;;;;;;;20.83;21.57;99051.19;5108986;28;19927;-83
2023/02/11 11:42:37;;;;;;;;;;;;;;;20.99;22.11;99048.91;5113071;28;19926;-83
2023/02/11 11:45:23;;;;;;;;;;;;;;;21.17;22.79;99061.00;5104837;27;19927;-84
2023/02/11 11:48:03;;;;;;;;;;;;;;;20.73;23.72;99054.72;5111920;28;20295;-84
2023/02/11 11:50:29;;;;;;;;;;;;;;;22.04;21.31;99058.94;5113800;28;19926;-84
2023/02/11 11:53:13;;;;;;;;;;;;;;;22.99;21.43;99042.16;5102659;28;19928;-85
2023/02/11 11:55:42;;;;;;;;;;;;;;;21.96;21.13;99035.75;5100260;27;19923;-83
2023/02/11 11:58:19;;;;;;;;;;;;;;;22.33;20.84;99055.00;5106787;28;19927;-84
2023/02/11 12:01:03;;;;;;;;;;;;;;;21.85;20.00;99076.06;5109815;28;19920;-84
2023/02/11 12:03:32;;;;;;;;;;;;;;;19.67;23.70;99078.78;5108454;27;19927;-84
2023/02/11 12:06:16;;;;;;;;;;;;;;;19.97;22.54;99087.09;5112538;28;20065;-84
2023/02/11 12:08:56;;;;;;;;;;;;;;;20.76;21.55;99078.25;5109072;28;19920;-85
2023/02/11 12:11:33;;;;;;;;;;;;;;;21.65;22.13;99064.41;5101653;28;19927;-83
2023/02/11 12:14:06;;;;;;;;;;;;;;;22.88;20.70;99058.19;5108225;28;19984;-83
2023/02/11 12:16:38;;;;;;;;;;;;;;;23.62;19.98;99057.22;5100420;28;19963;-82
2023/02/11 12:19:32;;;;;;;;;;;;;;;23.98;19.99;99064.22;5107987;27;19923;-87
2023/02/11 12:22:16;;;;;;;;;;;;;;;22.86;21.98;99080.22;5107735;28;19932;-85
2023/02/11 12:24:42;;;;;;;;;;;;;;;22.05;21.38;99062.56;5109515;28;19919;-84
2023/02/11 12:27:09;;;;;;;;;;;;;;;20.04;22.67;99055.69;5105330;28;19989;-84
2023/02/11 12:29:35;;;;;;;;;;;;;;;21.23;22.67;99069.81;5105849;28;19959;-84
2023/02/11 12:32:16;;;;;;;;;;;;;;;21.13;24.64;99095.69;5105728;28;19920;-84
2023/02/11 12:34:55;;;;;;;;;;;;;;;20.91;22.80;99103.06;5104026;28;20337;-84
2023/02/11 12:37:41;;;;;;;;;;;;;;;21.25;21.96;99093.38;5105544;28;20394;-85
2023/02/11 12:40:25;;;;;;;;;;;;;;;19.73;25.96;99085.63;5109411;28;20015;-84
2023/02/11 12:43:15;;;;;;;;;;;;;;;20.02;25.09;99083.16;5108199;28;19954;-85
2023/02/11 12:45:47;;;;;;;;;;;;;;;20.83;23.59;99076.31;5114031;28;19919;-85
2023/02/11 12:48:31;;;;;;;;;;;;;;;22.07;22.36;99066.56;5100465;27;19920;-84
2023/02/11 12:51:09;;;;;;;;;;;;;;;21.60;21.85;99066.78;5113465;28;19928;-85
2023/02/11 12:53:47;;;;;;;;;;;;;;;21.80;22.12;99065.25;5116501;27;19955;-84
2023/02/11 12:56:20;;;;;;;;;;;;;;;21.54;22.77;99052.38;5114127;28;19973;-83
2023/02/11 12:58:49;;;;;;;;;;;;;;;21.16;23.54;99041.84;5113996;28;19959;-84
2023/02/11 13:01:15;;;;;;;;;;;;;;;22.49;21.62;99040.59;5111321;27;19934;-84
2023/02/11 13:03:41;;;;;;;;;;;;;;;23.29;19.67;99020.06;5099237;28;19919;-83